الصفحة الرئيسية
METAR-TAF:

METAR-TAF

مطار :

Kit Carson County Airport

Burlington, كولورادو, الولايات المتحدة

دائرة عرض: 39-14-32N, خط طول: 102-16-58W, ارتفاع: 1285 متر

مراقبة الطقس الحالي

تاريخ ووقت الإصدار 51 دقيقة قبل الساعة 20:53UTC
ريح 10 عقدة من الشمال/الشمال الغربي تتزايد حتى 19 عقدة
درجة الحرارة 8°درجة مئوية
الرطوبة 34%
ضغط 1027 hPa
الرؤية: 16.1 كم
سماء صافية

METAR: KITR 152053Z AUTO 34010G19KT 10SM CLR 08/M07 A3033 RMK AO2 SLP291 T00781072 58016

زمن: 15:44 (21:44 UTC)


TAF: مفقودة

أرصاد الطقس والتوقعات من أكثر من 4000 مطار (تقارير الطقس للمطار METAR والتنبؤ بالطقس بالمطارTAF).

المحطات المتاحة هي النقط الصفراء والحمراء على الخريطة.

حرك المؤشر فوق النقطة لمعرفة اسم المحطة.

ثم انقر لمعرفة أرصاد وتوقعات الطقس.

لتغيير الخارطة: اضغط على الأزرار الخضراء مع رمز الصليب الأسود للتكبير. على الزر الأخضر مع شرطة للتصغير، أو على الأسهم الخضراء للخرائط المجاورة.


METAR-TAF: